Time;durP1;ratioP1;P1;durP2;ratioP2;P2;SDS_P1;SDS_P2;PMS_P1;PMS_P2;Temp;Humidity;BMP_temperature;BMP_pressure;BME280_temperature;BME280_humidity;BME280_pressure;Samples;Min_cycle;Max_cycle;Signal;HPM_P1;HPM_P2
2023/10/30 00:00:08;;;;;;;15.15;5.47;;;16.80;99.90;;;;;;5033822;28;20064;-74
2023/10/30 00:02:39;;;;;;;11.15;4.50;;;16.80;99.90;;;;;;5033582;28;20104;-75
2023/10/30 00:05:09;;;;;;;11.07;4.53;;;16.80;99.90;;;;;;5033764;28;20030;-74
2023/10/30 00:07:37;;;;;;;13.85;4.60;;;16.80;99.90;;;;;;5033380;28;20484;-74
2023/10/30 00:10:03;;;;;;;9.77;4.03;;;16.80;99.90;;;;;;5033135;28;20052;-75
2023/10/30 00:12:29;;;;;;;11.77;4.18;;;16.80;99.90;;;;;;5033361;28;20076;-74
2023/10/30 00:14:56;;;;;;;13.68;4.40;;;16.80;99.90;;;;;;5033450;28;20412;-74
2023/10/30 00:17:25;;;;;;;10.35;4.43;;;16.80;99.90;;;;;;5015681;28;20036;-74
2023/10/30 00:19:50;;;;;;;8.90;3.80;;;16.80;99.90;;;;;;5033105;28;20034;-74
2023/10/30 00:22:19;;;;;;;13.18;4.85;;;16.80;99.90;;;;;;5033316;28;20026;-74
2023/10/30 00:24:48;;;;;;;11.43;4.03;;;16.80;99.90;;;;;;5033131;28;20029;-75
2023/10/30 00:27:16;;;;;;;17.70;4.03;;;16.80;99.90;;;;;;5033276;28;20477;-74
2023/10/30 00:29:44;;;;;;;10.85;3.80;;;16.80;99.90;;;;;;5033298;28;20025;-75
2023/10/30 00:32:10;;;;;;;14.20;3.88;;;16.80;99.90;;;;;;5015595;28;20021;-75
2023/10/30 00:34:39;;;;;;;12.18;3.60;;;16.80;99.90;;;;;;5033216;28;20057;-74
2023/10/30 00:37:05;;;;;;;16.90;5.07;;;16.80;99.90;;;;;;5033316;28;20022;-74
2023/10/30 00:39:32;;;;;;;13.05;4.07;;;16.80;99.90;;;;;;5033085;28;20116;-74
2023/10/30 00:42:01;;;;;;;7.22;3.88;;;16.80;99.90;;;;;;5033130;28;20021;-75
2023/10/30 00:44:27;;;;;;;10.02;4.30;;;16.80;99.90;;;;;;5033215;28;20099;-75
2023/10/30 00:46:53;;;;;;;10.68;4.20;;;16.80;99.90;;;;;;5032831;28;20424;-75
2023/10/30 00:49:20;;;;;;;14.15;3.75;;;16.80;99.90;;;;;;5033033;28;20033;-74
2023/10/30 00:51:46;;;;;;;12.93;4.05;;;16.80;99.90;;;;;;5033099;28;20049;-74
2023/10/30 00:54:17;;;;;;;16.35;4.35;;;16.80;99.90;;;;;;5032980;28;20034;-74
2023/10/30 00:56:49;;;;;;;10.70;3.80;;;16.80;99.90;;;;;;5032836;28;20495;-74
2023/10/30 00:59:15;;;;;;;8.80;3.75;;;16.80;99.90;;;;;;5032335;28;20121;-74
2023/10/30 01:01:41;;;;;;;11.65;3.63;;;16.70;99.90;;;;;;5014869;28;20041;-74
2023/10/30 01:04:07;;;;;;;9.77;3.47;;;16.70;99.90;;;;;;5032643;28;20034;-75
2023/10/30 01:06:33;;;;;;;13.57;2.90;;;16.70;99.90;;;;;;5031894;28;20393;-74
2023/10/30 01:09:02;;;;;;;13.20;3.70;;;16.70;99.90;;;;;;5029929;28;20029;-74
2023/10/30 01:11:31;;;;;;;16.55;2.90;;;16.70;99.90;;;;;;5029849;28;20410;-75
2023/10/30 01:13:56;;;;;;;12.32;3.38;;;16.70;99.90;;;;;;5032663;28;20100;-74
2023/10/30 01:16:22;;;;;;;13.45;3.10;;;16.80;99.90;;;;;;5032755;28;20103;-74
2023/10/30 01:18:48;;;;;;;9.45;3.67;;;16.70;99.90;;;;;;5033086;28;20029;-75
2023/10/30 01:21:15;;;;;;;8.68;2.92;;;16.70;99.90;;;;;;5032530;28;20041;-74
2023/10/30 01:23:40;;;;;;;9.77;3.00;;;16.70;99.90;;;;;;5015093;28;20035;-75
2023/10/30 01:26:06;;;;;;;5.85;2.90;;;16.70;99.90;;;;;;5033020;28;20533;-74
2023/10/30 01:28:32;;;;;;;12.27;4.18;;;16.70;99.90;;;;;;5032893;28;20065;-75
2023/10/30 01:30:58;;;;;;;11.63;3.10;;;16.70;99.90;;;;;;5032642;28;20040;-74
2023/10/30 01:33:24;;;;;;;13.75;3.03;;;16.70;99.90;;;;;;5032303;28;20096;-75
2023/10/30 01:35:52;;;;;;;10.60;2.63;;;16.70;99.90;;;;;;5032470;28;20049;-74
2023/10/30 01:38:20;;;;;;;12.00;2.75;;;16.70;99.90;;;;;;5032562;28;20034;-74
2023/10/30 01:40:50;;;;;;;13.25;3.28;;;16.70;99.90;;;;;;5032333;28;20032;-74
2023/10/30 01:43:28;;;;;;;13.77;2.80;;;16.70;99.90;;;;;;5032411;28;20389;-74
2023/10/30 01:45:54;;;;;;;10.48;3.17;;;16.60;99.90;;;;;;5032543;28;20053;-74
2023/10/30 01:48:20;;;;;;;11.18;2.80;;;16.70;99.90;;;;;;5032855;28;20042;-75
2023/10/30 01:50:50;;;;;;;7.53;2.95;;;16.70;99.90;;;;;;5032556;28;20025;-74
2023/10/30 01:53:20;;;;;;;14.70;2.85;;;16.70;99.90;;;;;;5030812;28;20059;-74
2023/10/30 01:55:47;;;;;;;12.13;2.78;;;16.70;99.90;;;;;;5032395;28;20033;-74
2023/10/30 01:58:14;;;;;;;19.55;3.03;;;16.70;99.90;;;;;;5031078;28;20457;-74
2023/10/30 02:00:40;;;;;;;9.40;2.83;;;16.70;99.90;;;;;;5015461;28;20064;-74
2023/10/30 02:03:06;;;;;;;12.27;2.97;;;16.70;99.90;;;;;;5033284;28;20029;-74
2023/10/30 02:05:32;;;;;;;9.35;2.50;;;16.70;99.90;;;;;;5035080;28;20034;-74
2023/10/30 02:08:01;;;;;;;11.43;2.75;;;16.70;99.90;;;;;;5017647;28;20021;-74
2023/10/30 02:10:30;;;;;;;11.75;2.90;;;16.70;99.90;;;;;;5035397;28;20385;-75
2023/10/30 02:12:59;;;;;;;10.50;2.45;;;16.70;99.90;;;;;;5035658;28;20022;-74
2023/10/30 02:15:24;;;;;;;14.90;2.90;;;16.70;99.90;;;;;;5035642;28;20064;-74
2023/10/30 02:17:50;;;;;;;10.30;3.05;;;16.70;99.90;;;;;;5035506;28;20108;-75
2023/10/30 02:20:17;;;;;;;13.40;2.72;;;16.70;99.90;;;;;;5034850;28;20485;-75
2023/10/30 02:22:42;;;;;;;8.02;2.60;;;16.70;99.90;;;;;;5035895;28;20056;-74
2023/10/30 02:25:08;;;;;;;8.15;2.50;;;16.70;99.90;;;;;;5035712;28;20025;-75
2023/10/30 02:27:34;;;;;;;15.55;2.85;;;16.70;99.90;;;;;;5035239;28;20025;-74
2023/10/30 02:30:00;;;;;;;12.25;2.80;;;16.70;99.90;;;;;;5035480;28;20025;-74
2023/10/30 02:32:26;;;;;;;17.65;2.90;;;16.80;99.90;;;;;;5035378;28;20466;-74
2023/10/30 02:34:52;;;;;;;17.08;3.35;;;16.70;99.90;;;;;;5017578;28;20072;-75
2023/10/30 02:37:17;;;;;;;13.02;2.47;;;16.80;99.90;;;;;;5035303;28;20026;-74
2023/10/30 02:39:43;;;;;;;19.25;3.13;;;16.80;99.90;;;;;;5035352;28;20105;-74
2023/10/30 02:42:09;;;;;;;12.35;2.75;;;16.80;99.90;;;;;;5035244;28;20462;-74
2023/10/30 02:44:35;;;;;;;15.98;3.00;;;16.80;99.90;;;;;;5035044;28;20366;-74
2023/10/30 02:47:01;;;;;;;15.27;2.80;;;16.80;99.90;;;;;;5035214;28;20083;-74
2023/10/30 02:49:27;;;;;;;15.30;3.47;;;16.80;99.90;;;;;;5035210;28;20021;-74
2023/10/30 02:51:53;;;;;;;11.95;2.70;;;16.80;99.90;;;;;;5034951;28;20061;-74
2023/10/30 02:54:18;;;;;;;8.45;3.17;;;16.80;99.90;;;;;;5034789;28;20072;-75
2023/10/30 02:56:45;;;;;;;17.33;2.90;;;16.80;99.90;;;;;;5017049;28;20551;-74
2023/10/30 02:59:11;;;;;;;13.27;2.50;;;16.80;99.90;;;;;;5034747;28;20123;-74
2023/10/30 03:01:37;;;;;;;11.90;2.67;;;16.80;99.90;;;;;;5034922;28;20050;-74
2023/10/30 03:04:03;;;;;;;10.20;2.63;;;16.80;99.90;;;;;;5034646;28;20488;-74
2023/10/30 03:06:30;;;;;;;9.40;3.50;;;16.80;99.90;;;;;;5034674;28;20032;-75
2023/10/30 03:08:58;;;;;;;11.10;2.55;;;16.80;99.90;;;;;;5034545;28;20381;-75
2023/10/30 03:11:24;;;;;;;17.17;2.83;;;16.80;99.90;;;;;;5034671;28;20017;-74
2023/10/30 03:13:50;;;;;;;9.35;2.50;;;16.80;99.90;;;;;;5034625;28;20044;-74
2023/10/30 03:16:17;;;;;;;10.13;2.08;;;16.80;99.90;;;;;;5034405;28;20108;-74
2023/10/30 03:18:43;;;;;;;15.48;2.20;;;16.90;99.90;;;;;;5016514;28;20033;-74
2023/10/30 03:21:09;;;;;;;12.48;2.00;;;16.90;99.90;;;;;;5034042;28;20041;-74
2023/10/30 03:23:35;;;;;;;17.38;2.20;;;17.00;99.90;;;;;;5034360;28;20029;-74
2023/10/30 03:26:00;;;;;;;14.63;2.25;;;17.00;99.90;;;;;;5034278;28;20025;-74
2023/10/30 03:28:31;;;;;;;13.38;2.22;;;17.00;99.90;;;;;;5034333;28;20065;-74
2023/10/30 03:31:05;;;;;;;10.45;1.88;;;17.00;99.90;;;;;;5034489;28;20021;-74
2023/10/30 03:33:31;;;;;;;8.98;2.10;;;17.10;99.90;;;;;;5034118;28;20117;-74
2023/10/30 03:35:57;;;;;;;21.17;3.58;;;17.10;99.90;;;;;;5034180;28;20057;-75
2023/10/30 03:38:23;;;;;;;13.10;2.47;;;17.20;99.90;;;;;;5034119;28;20057;-74
2023/10/30 03:40:49;;;;;;;10.57;1.73;;;17.20;99.90;;;;;;5034026;28;20033;-74
2023/10/30 03:43:16;;;;;;;13.38;2.00;;;17.20;99.90;;;;;;5034269;28;20516;-74
2023/10/30 03:45:43;;;;;;;15.32;2.80;;;17.20;99.90;;;;;;5034086;28;20025;-74
2023/10/30 03:48:09;;;;;;;12.60;2.03;;;17.20;99.90;;;;;;5033889;28;20029;-74
2023/10/30 03:50:35;;;;;;;16.25;2.22;;;17.20;99.90;;;;;;5033937;28;20032;-74
2023/10/30 03:53:01;;;;;;;11.35;1.80;;;17.30;99.90;;;;;;5033377;28;20376;-75
2023/10/30 03:55:30;;;;;;;12.05;1.90;;;17.30;99.90;;;;;;5033599;28;20479;-75
2023/10/30 03:57:59;;;;;;;10.60;2.20;;;17.30;99.90;;;;;;5033778;28;20100;-75
2023/10/30 04:00:25;;;;;;;13.10;2.30;;;17.30;99.90;;;;;;5033490;28;20401;-75
2023/10/30 04:02:50;;;;;;;11.32;2.30;;;17.30;99.90;;;;;;5033835;28;20359;-74
2023/10/30 04:05:19;;;;;;;10.10;2.22;;;17.30;99.90;;;;;;5033862;28;20492;-74
2023/10/30 04:07:45;;;;;;;11.77;2.28;;;17.30;99.90;;;;;;5032980;28;20029;-75
2023/10/30 04:10:11;;;;;;;15.73;2.30;;;17.30;99.90;;;;;;5033134;28;20022;-74
2023/10/30 04:12:40;;;;;;;10.98;1.80;;;17.30;99.90;;;;;;5033503;28;20060;-75
2023/10/30 04:15:06;;;;;;;9.50;1.70;;;17.30;99.90;;;;;;5033357;28;20119;-74
2023/10/30 04:17:32;;;;;;;7.97;1.80;;;17.30;99.90;;;;;;5033280;28;20021;-74
2023/10/30 04:20:00;;;;;;;12.98;1.95;;;17.30;99.90;;;;;;5033532;28;20033;-75
2023/10/30 04:22:26;;;;;;;10.93;2.97;;;17.30;99.90;;;;;;5033108;28;20392;-74
2023/10/30 04:24:52;;;;;;;9.57;2.28;;;17.30;99.90;;;;;;5033504;28;20528;-75
2023/10/30 04:27:18;;;;;;;13.82;2.50;;;17.30;99.90;;;;;;5033347;28;20022;-74
2023/10/30 04:29:44;;;;;;;9.27;2.00;;;17.30;99.90;;;;;;5033435;28;20117;-75
2023/10/30 04:32:12;;;;;;;9.60;1.90;;;17.30;99.90;;;;;;5033273;28;20084;-75
2023/10/30 04:34:38;;;;;;;12.63;2.05;;;17.30;99.90;;;;;;5032858;28;20052;-74
2023/10/30 04:37:05;;;;;;;10.30;1.88;;;17.30;99.90;;;;;;5033134;28;20025;-75
2023/10/30 04:39:31;;;;;;;8.40;2.58;;;17.30;99.90;;;;;;5015193;28;20068;-75
2023/10/30 04:41:57;;;;;;;12.63;1.80;;;17.30;99.90;;;;;;5032804;28;20061;-74
2023/10/30 04:44:23;;;;;;;10.68;2.20;;;17.30;99.90;;;;;;5032824;28;20060;-74
2023/10/30 04:46:48;;;;;;;15.05;2.22;;;17.30;99.90;;;;;;5033011;28;20026;-74
2023/10/30 04:49:14;;;;;;;7.93;1.88;;;17.30;99.90;;;;;;5033281;28;20036;-74
2023/10/30 04:51:43;;;;;;;12.13;2.30;;;17.30;99.90;;;;;;5032853;28;20373;-74
2023/10/30 04:54:09;;;;;;;7.90;1.95;;;17.30;99.90;;;;;;5033147;28;20029;-74
2023/10/30 04:56:35;;;;;;;7.70;2.00;;;17.30;99.90;;;;;;5032692;28;20025;-75
2023/10/30 04:59:01;;;;;;;11.10;2.03;;;17.30;99.90;;;;;;5032082;28;20060;-75
2023/10/30 05:01:27;;;;;;;12.93;2.20;;;17.30;99.90;;;;;;5032211;28;20014;-74
2023/10/30 05:03:52;;;;;;;11.32;2.10;;;17.30;99.90;;;;;;5032411;28;20025;-74
2023/10/30 05:06:18;;;;;;;9.90;2.13;;;17.30;99.90;;;;;;5032575;28;20053;-75
2023/10/30 05:08:45;;;;;;;8.35;2.13;;;17.30;99.90;;;;;;5032311;28;20036;-74
2023/10/30 05:11:10;;;;;;;10.32;2.72;;;17.20;99.90;;;;;;5032463;28;20108;-75
2023/10/30 05:13:36;;;;;;;16.13;2.80;;;17.30;99.90;;;;;;5015051;28;20048;-75
2023/10/30 05:16:05;;;;;;;10.32;2.25;;;17.20;99.90;;;;;;5032464;28;20385;-75
2023/10/30 05:18:31;;;;;;;12.50;1.95;;;17.20;99.90;;;;;;5032498;28;20065;-75
2023/10/30 05:20:59;;;;;;;10.40;3.33;;;17.20;99.90;;;;;;5032935;28;20064;-75
2023/10/30 05:23:25;;;;;;;10.48;2.08;;;17.20;99.90;;;;;;5032700;28;20025;-75
2023/10/30 05:25:51;;;;;;;12.23;2.40;;;17.20;99.90;;;;;;5032740;28;20033;-75
2023/10/30 05:28:17;;;;;;;7.97;2.58;;;17.20;99.90;;;;;;5032180;28;20021;-75
2023/10/30 05:30:42;;;;;;;11.20;2.40;;;17.20;99.90;;;;;;5032437;28;20156;-75
2023/10/30 05:33:08;;;;;;;10.27;2.10;;;17.20;99.90;;;;;;5032213;28;20045;-75
2023/10/30 05:35:34;;;;;;;12.15;1.90;;;17.20;99.90;;;;;;5036252;28;20065;-75
2023/10/30 05:38:00;;;;;;;8.13;1.70;;;17.20;99.90;;;;;;5036314;28;20143;-74
2023/10/30 05:40:26;;;;;;;8.27;2.28;;;17.20;99.90;;;;;;5036111;28;20042;-75
2023/10/30 05:42:52;;;;;;;7.82;2.13;;;17.20;99.90;;;;;;5036157;28;20477;-75
2023/10/30 05:45:17;;;;;;;11.80;2.17;;;17.20;99.90;;;;;;5036141;28;20445;-74
2023/10/30 05:47:43;;;;;;;8.27;2.20;;;17.20;99.90;;;;;;5018392;28;20068;-74
2023/10/30 05:50:09;;;;;;;10.80;2.60;;;17.20;99.90;;;;;;5036273;28;20052;-75
2023/10/30 05:52:35;;;;;;;15.00;2.55;;;17.20;99.90;;;;;;5036330;28;20358;-75
2023/10/30 05:55:04;;;;;;;11.07;2.90;;;17.20;99.90;;;;;;5036019;28;20355;-75
2023/10/30 05:57:31;;;;;;;12.93;2.72;;;17.10;99.90;;;;;;5035466;28;20092;-74
2023/10/30 05:59:57;;;;;;;12.68;2.83;;;17.10;99.90;;;;;;5035562;28;20041;-75
2023/10/30 06:02:23;;;;;;;14.65;3.25;;;17.20;99.90;;;;;;5035871;28;20028;-75
2023/10/30 06:04:49;;;;;;;13.07;2.90;;;17.20;99.90;;;;;;5035822;28;20461;-74
2023/10/30 06:07:15;;;;;;;13.05;2.95;;;17.20;99.90;;;;;;5035770;28;20022;-75
2023/10/30 06:09:41;;;;;;;8.98;2.83;;;17.20;99.90;;;;;;5035684;28;20032;-75
2023/10/30 06:12:08;;;;;;;8.57;2.80;;;17.10;99.90;;;;;;5035668;28;20026;-75
2023/10/30 06:14:36;;;;;;;11.95;3.03;;;17.20;99.90;;;;;;5035375;28;20017;-75
2023/10/30 06:17:02;;;;;;;9.10;2.83;;;17.20;99.90;;;;;;5035901;28;20025;-75
2023/10/30 06:19:30;;;;;;;12.75;3.50;;;17.20;99.90;;;;;;5035489;28;20108;-75
2023/10/30 06:21:56;;;;;;;12.38;3.33;;;17.20;99.90;;;;;;5035460;28;20025;-75
2023/10/30 06:24:22;;;;;;;10.48;3.30;;;17.10;99.90;;;;;;5035127;28;20033;-75
2023/10/30 06:26:48;;;;;;;11.48;2.78;;;17.10;99.90;;;;;;5035040;28;20024;-74
2023/10/30 06:29:31;;;;;;;12.40;3.38;;;17.10;99.90;;;;;;5035161;28;20033;-75
2023/10/30 06:31:57;;;;;;;12.52;2.78;;;17.10;99.90;;;;;;5016696;28;20116;-75
2023/10/30 06:34:23;;;;;;;8.93;3.05;;;17.10;99.90;;;;;;5034663;28;20129;-74
2023/10/30 06:36:49;;;;;;;13.05;3.35;;;17.10;99.90;;;;;;5034667;28;20018;-75
2023/10/30 06:39:20;;;;;;;13.90;3.17;;;17.20;99.90;;;;;;5035111;28;20044;-75
2023/10/30 06:41:48;;;;;;;8.32;3.03;;;17.20;99.90;;;;;;5034772;28;20072;-75
2023/10/30 06:44:15;;;;;;;11.68;3.20;;;17.20;99.90;;;;;;5034829;28;20124;-75
2023/10/30 06:46:44;;;;;;;7.70;3.25;;;17.20;99.90;;;;;;5034931;28;20022;-75
2023/10/30 06:49:12;;;;;;;8.05;3.00;;;17.20;99.90;;;;;;5034782;28;20029;-75
2023/10/30 06:51:38;;;;;;;10.65;4.00;;;17.20;99.90;;;;;;5034752;28;20033;-75
2023/10/30 06:54:04;;;;;;;8.75;3.28;;;17.20;99.90;;;;;;5035123;28;20030;-75
2023/10/30 06:56:30;;;;;;;13.90;4.85;;;17.20;99.90;;;;;;5034585;28;20029;-75
2023/10/30 06:58:56;;;;;;;12.00;3.20;;;17.20;99.90;;;;;;5034738;28;20116;-75
2023/10/30 07:01:25;;;;;;;8.00;2.65;;;17.20;99.90;;;;;;5034451;28;20033;-75
2023/10/30 07:03:50;;;;;;;12.60;3.10;;;17.20;99.90;;;;;;5034329;28;20456;-75
2023/10/30 07:06:16;;;;;;;14.02;3.47;;;17.20;99.90;;;;;;5034264;28;20757;-75
2023/10/30 07:08:42;;;;;;;10.80;3.30;;;17.30;99.90;;;;;;5034141;28;20026;-76
2023/10/30 07:11:08;;;;;;;10.02;3.25;;;17.20;99.90;;;;;;5034482;28;20029;-75
2023/10/30 07:13:34;;;;;;;11.23;3.35;;;17.20;99.90;;;;;;5033904;28;20507;-74
2023/10/30 07:16:00;;;;;;;7.65;3.20;;;17.30;99.90;;;;;;5034412;28;20029;-74
2023/10/30 07:18:28;;;;;;;11.18;2.80;;;17.30;99.90;;;;;;5034525;28;20113;-75
2023/10/30 07:20:54;;;;;;;7.28;2.63;;;17.30;99.90;;;;;;5034597;28;20409;-75
2023/10/30 07:23:22;;;;;;;12.07;3.20;;;17.30;99.90;;;;;;5033651;28;20030;-75
2023/10/30 07:25:48;;;;;;;12.98;3.25;;;17.30;99.90;;;;;;5033898;28;20048;-75
2023/10/30 07:28:16;;;;;;;8.00;3.00;;;17.30;99.90;;;;;;5033584;28;20052;-75
2023/10/30 07:30:42;;;;;;;8.40;2.85;;;17.30;99.90;;;;;;5033350;28;20112;-75
2023/10/30 07:33:08;;;;;;;7.32;2.63;;;17.30;99.90;;;;;;5033028;28;20049;-75
2023/10/30 07:35:36;;;;;;;12.38;3.13;;;17.30;99.90;;;;;;5033663;28;20351;-75
2023/10/30 07:38:02;;;;;;;13.23;3.38;;;17.30;99.90;;;;;;5030902;28;20064;-75
2023/10/30 07:40:28;;;;;;;7.82;2.60;;;17.30;99.90;;;;;;5033537;28;20458;-75
2023/10/30 07:42:54;;;;;;;9.77;2.70;;;17.30;99.90;;;;;;5033814;28;20021;-75
2023/10/30 07:45:20;;;;;;;7.18;2.67;;;17.40;99.90;;;;;;5033825;28;20025;-76
2023/10/30 07:47:54;;;;;;;8.30;2.50;;;17.40;99.90;;;;;;5033910;28;20022;-74
2023/10/30 07:50:20;;;;;;;8.55;2.55;;;17.40;99.90;;;;;;5033715;28;20037;-74
2023/10/30 07:52:49;;;;;;;8.00;3.15;;;17.40;99.90;;;;;;5033500;28;20366;-75
2023/10/30 07:55:18;;;;;;;7.32;2.97;;;17.40;99.90;;;;;;5033836;28;20029;-75
2023/10/30 07:57:43;;;;;;;5.80;2.30;;;17.40;99.90;;;;;;5033206;28;20021;-75
2023/10/30 08:00:11;;;;;;;7.70;2.70;;;17.40;99.90;;;;;;5033292;28;20531;-75
2023/10/30 08:02:37;;;;;;;8.20;2.55;;;17.40;99.90;;;;;;5033489;28;20018;-75
2023/10/30 08:05:03;;;;;;;6.70;2.45;;;17.40;99.90;;;;;;5033709;28;20025;-75
2023/10/30 08:07:29;;;;;;;7.20;2.45;;;17.40;99.90;;;;;;5033242;28;20036;-75
2023/10/30 08:09:58;;;;;;;8.82;2.35;;;17.40;99.90;;;;;;5032844;28;20026;-75
2023/10/30 08:12:24;;;;;;;8.63;3.30;;;17.40;99.90;;;;;;5033558;28;20037;-75
2023/10/30 08:14:52;;;;;;;8.07;3.85;;;17.40;99.90;;;;;;5033188;28;20033;-75
2023/10/30 08:17:17;;;;;;;7.07;3.90;;;17.50;99.90;;;;;;5033185;28;20460;-76
2023/10/30 08:19:47;;;;;;;12.98;4.68;;;17.50;99.90;;;;;;5032526;28;20057;-75
2023/10/30 08:22:15;;;;;;;10.52;4.45;;;17.50;99.90;;;;;;5032502;28;20100;-75
2023/10/30 08:24:41;;;;;;;9.13;4.50;;;17.50;99.90;;;;;;5033101;28;20026;-74
2023/10/30 08:27:07;;;;;;;7.60;3.85;;;17.50;99.90;;;;;;5032894;28;20040;-74
2023/10/30 08:29:36;;;;;;;8.52;3.47;;;17.60;99.90;;;;;;5032299;28;20025;-75
2023/10/30 08:32:02;;;;;;;11.73;3.35;;;17.50;99.90;;;;;;5033336;28;20409;-75
2023/10/30 08:34:27;;;;;;;7.45;3.75;;;17.40;99.90;;;;;;5033214;28;20041;-74
2023/10/30 08:36:53;;;;;;;8.82;3.55;;;17.40;99.90;;;;;;5033342;28;20025;-74
2023/10/30 08:39:19;;;;;;;8.30;3.60;;;17.40;99.90;;;;;;5032057;28;20040;-75
2023/10/30 08:41:45;;;;;;;7.95;3.88;;;17.40;99.90;;;;;;5032501;28;20056;-75
2023/10/30 08:44:11;;;;;;;13.05;4.38;;;17.40;99.90;;;;;;5031899;28;20022;-75
2023/10/30 08:46:37;;;;;;;14.45;4.40;;;17.40;99.90;;;;;;5031937;28;20018;-75
2023/10/30 08:49:04;;;;;;;8.52;4.50;;;17.40;99.90;;;;;;5032732;28;20481;-75
2023/10/30 08:51:30;;;;;;;11.25;3.90;;;17.40;99.90;;;;;;5033204;28;20068;-75
2023/10/30 08:53:56;;;;;;;9.10;4.25;;;17.40;99.90;;;;;;5033211;28;20029;-75
2023/10/30 08:56:22;;;;;;;13.27;5.05;;;17.50;99.90;;;;;;5032819;28;20145;-75
2023/10/30 08:58:51;;;;;;;12.45;5.57;;;17.40;99.90;;;;;;5032790;28;20033;-75
2023/10/30 09:01:17;;;;;;;12.25;4.93;;;17.50;99.90;;;;;;5032800;28;20029;-75
2023/10/30 09:03:43;;;;;;;11.00;3.60;;;17.50;99.90;;;;;;5033039;28;20029;-75
2023/10/30 09:06:09;;;;;;;12.85;3.58;;;17.50;99.90;;;;;;5033031;28;20381;-75
2023/10/30 09:08:35;;;;;;;9.18;3.70;;;17.60;99.90;;;;;;5035703;28;20024;-74
2023/10/30 09:11:00;;;;;;;10.73;3.45;;;17.60;99.90;;;;;;5036769;28;20028;-75
2023/10/30 09:13:26;;;;;;;11.30;3.42;;;17.70;99.90;;;;;;5036898;28;20061;-75
2023/10/30 09:15:58;;;;;;;7.00;3.17;;;17.70;99.90;;;;;;5037239;28;20022;-75
2023/10/30 09:18:24;;;;;;;7.00;2.70;;;17.80;99.90;;;;;;5036795;28;20060;-75
2023/10/30 09:20:50;;;;;;;10.95;2.83;;;17.80;99.90;;;;;;5036776;28;20036;-75
2023/10/30 09:23:19;;;;;;;7.30;3.30;;;17.80;99.90;;;;;;5036585;28;20449;-75
2023/10/30 09:25:45;;;;;;;11.18;3.38;;;17.90;99.90;;;;;;5036700;28;20084;-75
2023/10/30 09:28:11;;;;;;;7.68;2.95;;;17.90;99.90;;;;;;5036740;28;20021;-75
2023/10/30 09:30:37;;;;;;;10.20;3.03;;;17.90;99.90;;;;;;5036672;28;20091;-75
2023/10/30 09:33:03;;;;;;;13.45;3.20;;;17.90;99.90;;;;;;5036338;28;20029;-75
2023/10/30 09:35:30;;;;;;;7.28;2.85;;;18.00;99.90;;;;;;5036010;28;20481;-75
2023/10/30 09:37:59;;;;;;;13.02;3.38;;;18.00;99.90;;;;;;5036504;28;20092;-74
2023/10/30 09:40:31;;;;;;;13.93;4.30;;;18.00;99.90;;;;;;5036358;28;20038;-75
2023/10/30 09:42:58;;;;;;;9.05;3.65;;;18.00;99.90;;;;;;5036432;28;20017;-75
2023/10/30 09:45:25;;;;;;;10.10;3.33;;;17.90;99.90;;;;;;5035888;28;20021;-75
2023/10/30 09:47:55;;;;;;;7.78;3.20;;;17.90;99.90;;;;;;5036311;28;20018;-75
2023/10/30 09:50:24;;;;;;;10.32;3.35;;;17.90;99.90;;;;;;5036393;28;20029;-74
2023/10/30 09:52:54;;;;;;;9.25;3.80;;;18.00;99.90;;;;;;5036125;28;20100;-74
2023/10/30 09:55:23;;;;;;;12.90;3.90;;;18.00;99.90;;;;;;5036132;28;20112;-75
2023/10/30 09:57:52;;;;;;;8.57;3.25;;;18.00;99.90;;;;;;5035907;28;20355;-75
2023/10/30 10:00:19;;;;;;;7.93;3.33;;;18.00;99.90;;;;;;5034858;28;20045;-75
2023/10/30 10:02:46;;;;;;;9.07;3.10;;;18.00;99.90;;;;;;5036005;28;20105;-74
2023/10/30 10:05:15;;;;;;;8.25;2.50;;;18.00;99.90;;;;;;5035989;28;20029;-75
2023/10/30 10:07:41;;;;;;;12.60;2.45;;;18.10;99.90;;;;;;5035731;28;20028;-75
2023/10/30 10:10:10;;;;;;;11.68;2.47;;;18.10;99.90;;;;;;5035999;28;20021;-75
2023/10/30 10:12:36;;;;;;;11.40;2.35;;;18.10;99.90;;;;;;5036002;28;20021;-75
2023/10/30 10:15:08;;;;;;;9.75;2.40;;;18.10;99.90;;;;;;5036020;28;20030;-75
2023/10/30 10:17:45;;;;;;;11.75;2.70;;;18.20;99.90;;;;;;5035619;28;20435;-75
2023/10/30 10:20:12;;;;;;;7.63;2.90;;;18.20;99.90;;;;;;5034347;28;20084;-75
2023/10/30 10:22:39;;;;;;;10.40;2.78;;;18.20;99.90;;;;;;5035626;28;20021;-75
2023/10/30 10:25:10;;;;;;;10.73;2.72;;;18.20;99.90;;;;;;5035614;28;20064;-75
2023/10/30 10:27:38;;;;;;;8.90;2.72;;;18.20;99.90;;;;;;5035877;28;20017;-75
2023/10/30 10:30:06;;;;;;;12.52;2.90;;;18.20;99.90;;;;;;5035556;28;20061;-75
2023/10/30 10:32:32;;;;;;;8.48;2.58;;;18.20;99.90;;;;;;5035399;28;20384;-75
2023/10/30 10:35:02;;;;;;;8.68;2.22;;;18.20;99.90;;;;;;5035021;28;20045;-74
2023/10/30 10:37:29;;;;;;;9.20;3.45;;;18.20;99.90;;;;;;5035270;28;20106;-75
2023/10/30 10:39:55;;;;;;;11.77;3.60;;;18.20;99.90;;;;;;5035312;28;20038;-75
2023/10/30 10:42:26;;;;;;;8.70;2.40;;;18.20;99.90;;;;;;5035291;28;20025;-75
2023/10/30 10:44:55;;;;;;;10.20;2.40;;;18.20;99.90;;;;;;5035119;28;20147;-75
2023/10/30 10:47:25;;;;;;;11.63;3.38;;;18.30;99.90;;;;;;5035131;28;20401;-75
2023/10/30 10:49:51;;;;;;;10.45;2.60;;;18.30;99.90;;;;;;5034729;28;20032;-75
2023/10/30 10:52:21;;;;;;;19.90;3.15;;;18.40;99.90;;;;;;5034964;28;20030;-75
2023/10/30 10:54:58;;;;;;;18.48;3.17;;;18.40;99.90;;;;;;5034800;28;20366;-75
2023/10/30 10:57:24;;;;;;;19.20;3.20;;;18.40;99.90;;;;;;5034908;28;20377;-75
2023/10/30 11:00:07;;;;;;;23.17;3.42;;;18.50;99.90;;;;;;5034893;28;20489;-75
2023/10/30 11:02:38;;;;;;;17.13;3.70;;;18.60;99.90;;;;;;5034737;28;20022;-75
2023/10/30 11:05:08;;;;;;;20.70;3.47;;;18.60;99.90;;;;;;5034958;28;20018;-75
2023/10/30 11:07:41;;;;;;;21.83;3.80;;;18.70;99.90;;;;;;5034840;28;20112;-74
2023/10/30 11:10:25;;;;;;;16.77;3.08;;;18.70;99.90;;;;;;5034819;28;20026;-75
2023/10/30 11:13:33;;;;;;;18.55;3.92;;;18.80;99.90;;;;;;5034481;28;20389;-75
2023/10/30 11:16:30;;;;;;;17.05;3.30;;;18.80;99.90;;;;;;5005618;28;20045;-75
2023/10/30 11:19:02;;;;;;;16.17;4.00;;;18.80;99.90;;;;;;5029118;28;20084;-75
2023/10/30 11:21:28;;;;;;;23.80;4.07;;;18.90;99.90;;;;;;5034475;28;20080;-75
2023/10/30 11:23:59;;;;;;;12.48;2.83;;;18.90;99.90;;;;;;5034470;28;20040;-75
2023/10/30 11:26:40;;;;;;;18.80;4.13;;;18.90;99.90;;;;;;5034259;28;20052;-75
2023/10/30 11:29:08;;;;;;;19.98;3.78;;;18.90;99.90;;;;;;5034429;28;20026;-75
2023/10/30 11:31:50;;;;;;;17.20;3.35;;;18.90;99.90;;;;;;5033072;28;20030;-75
2023/10/30 11:34:16;;;;;;;16.67;3.35;;;18.90;99.90;;;;;;5034192;28;20048;-74
2023/10/30 11:36:45;;;;;;;16.38;3.08;;;18.80;99.90;;;;;;5034389;28;20029;-75
2023/10/30 11:39:14;;;;;;;12.63;2.75;;;18.90;99.90;;;;;;5033438;28;20091;-75
2023/10/30 11:41:44;;;;;;;17.15;3.00;;;18.90;99.90;;;;;;5033928;28;20048;-75
2023/10/30 11:44:11;;;;;;;19.33;4.22;;;18.80;99.90;;;;;;5033817;28;20061;-75
2023/10/30 11:46:46;;;;;;;19.83;4.65;;;18.80;99.90;;;;;;5033935;28;20079;-75
2023/10/30 11:49:17;;;;;;;15.68;3.28;;;18.90;99.90;;;;;;5032432;28;20022;-78
2023/10/30 11:51:46;;;;;;;18.15;3.70;;;18.90;99.90;;;;;;5033585;28;20489;-75
2023/10/30 11:54:19;;;;;;;17.60;3.85;;;19.00;99.90;;;;;;5033752;28;20022;-75
2023/10/30 11:56:48;;;;;;;17.55;2.75;;;19.10;99.90;;;;;;5034008;28;21008;-75
2023/10/30 11:59:18;;;;;;;19.02;3.15;;;19.10;99.90;;;;;;5033283;28;20034;-75
2023/10/30 12:01:48;;;;;;;14.48;3.03;;;19.10;99.90;;;;;;5033443;28;20025;-75
2023/10/30 12:04:27;;;;;;;17.48;3.25;;;19.10;99.90;;;;;;5033155;28;20022;-75
2023/10/30 12:06:56;;;;;;;16.55;3.65;;;19.20;99.90;;;;;;5033488;28;20029;-75
2023/10/30 12:09:23;;;;;;;15.40;3.03;;;19.20;99.90;;;;;;5033289;28;20056;-75
2023/10/30 12:11:49;;;;;;;14.85;3.20;;;19.20;99.90;;;;;;5033329;28;20053;-75
2023/10/30 12:14:27;;;;;;;14.23;3.30;;;19.10;99.90;;;;;;5032950;28;20017;-75
2023/10/30 12:16:52;;;;;;;17.75;3.10;;;19.10;99.90;;;;;;5032134;28;20025;-75
2023/10/30 12:19:22;;;;;;;17.25;3.30;;;19.10;99.90;;;;;;5033106;28;20043;-75
2023/10/30 12:21:49;;;;;;;15.70;3.58;;;19.10;99.90;;;;;;5033122;28;20381;-75
2023/10/30 12:24:16;;;;;;;18.10;3.58;;;19.00;99.90;;;;;;5033310;28;20441;-75
2023/10/30 12:26:43;;;;;;;17.83;3.70;;;19.00;99.90;;;;;;5033485;28;20085;-75
2023/10/30 12:29:21;;;;;;;18.23;3.30;;;19.00;99.90;;;;;;5031759;28;20094;-75
2023/10/30 12:32:02;;;;;;;17.17;3.30;;;19.00;99.90;;;;;;5030319;28;20399;-74
2023/10/30 12:34:28;;;;;;;13.32;3.00;;;19.00;99.90;;;;;;5030262;28;20049;-75
2023/10/30 12:36:54;;;;;;;15.98;3.00;;;19.00;99.90;;;;;;5032426;28;20496;-75
2023/10/30 12:39:25;;;;;;;11.95;3.47;;;18.90;99.90;;;;;;5032608;28;20034;-75
2023/10/30 12:42:02;;;;;;;14.88;2.65;;;18.90;99.90;;;;;;5032649;28;20026;-75